sensor_id;sensor_type;location;lat;lon;timestamp;temperature;humidity
13328;DHT22;6733;51.044;3.746;2023-11-19T00:01:23;14.70;99.90
13328;DHT22;6733;51.044;3.746;2023-11-19T00:03:49;14.70;99.90
13328;DHT22;6733;51.044;3.746;2023-11-19T00:06:15;14.70;99.90
13328;DHT22;6733;51.044;3.746;2023-11-19T00:08:42;14.70;99.90
13328;DHT22;6733;51.044;3.746;2023-11-19T00:11:12;14.60;99.90
13328;DHT22;6733;51.044;3.746;2023-11-19T00:13:41;14.60;99.90
13328;DHT22;6733;51.044;3.746;2023-11-19T00:16:08;14.60;99.90
13328;DHT22;6733;51.044;3.746;2023-11-19T00:18:36;14.60;99.90
13328;DHT22;6733;51.044;3.746;2023-11-19T00:21:02;14.60;99.90
13328;DHT22;6733;51.044;3.746;2023-11-19T00:23:28;14.60;99.90
13328;DHT22;6733;51.044;3.746;2023-11-19T00:25:54;14.60;99.90
13328;DHT22;6733;51.044;3.746;2023-11-19T00:28:20;14.60;99.90
13328;DHT22;6733;51.044;3.746;2023-11-19T00:30:46;14.50;99.90
13328;DHT22;6733;51.044;3.746;2023-11-19T00:33:13;14.50;99.90
13328;DHT22;6733;51.044;3.746;2023-11-19T00:35:39;14.50;99.90
13328;DHT22;6733;51.044;3.746;2023-11-19T00:38:05;14.50;99.90
13328;DHT22;6733;51.044;3.746;2023-11-19T00:40:31;14.50;99.90
13328;DHT22;6733;51.044;3.746;2023-11-19T00:42:57;14.40;99.90
13328;DHT22;6733;51.044;3.746;2023-11-19T00:45:24;14.50;99.90
13328;DHT22;6733;51.044;3.746;2023-11-19T00:47:50;14.50;99.90
13328;DHT22;6733;51.044;3.746;2023-11-19T00:50:16;14.50;99.90
13328;DHT22;6733;51.044;3.746;2023-11-19T00:52:43;14.40;99.90
13328;DHT22;6733;51.044;3.746;2023-11-19T00:55:09;14.40;99.90
13328;DHT22;6733;51.044;3.746;2023-11-19T00:57:35;14.30;99.90
13328;DHT22;6733;51.044;3.746;2023-11-19T01:00:02;14.30;99.90
13328;DHT22;6733;51.044;3.746;2023-11-19T01:02:45;14.30;99.90
13328;DHT22;6733;51.044;3.746;2023-11-19T01:05:11;14.20;99.90
13328;DHT22;6733;51.044;3.746;2023-11-19T01:07:40;14.20;99.90
13328;DHT22;6733;51.044;3.746;2023-11-19T01:10:06;14.20;99.90
13328;DHT22;6733;51.044;3.746;2023-11-19T01:12:34;14.20;99.90
13328;DHT22;6733;51.044;3.746;2023-11-19T01:15:00;14.10;99.90
13328;DHT22;6733;51.044;3.746;2023-11-19T01:17:27;14.10;99.90
13328;DHT22;6733;51.044;3.746;2023-11-19T01:19:53;14.10;99.90
13328;DHT22;6733;51.044;3.746;2023-11-19T01:22:19;14.10;99.90
13328;DHT22;6733;51.044;3.746;2023-11-19T01:24:45;14.00;99.90
13328;DHT22;6733;51.044;3.746;2023-11-19T01:27:11;14.00;99.90
13328;DHT22;6733;51.044;3.746;2023-11-19T01:29:38;14.00;99.90
13328;DHT22;6733;51.044;3.746;2023-11-19T01:32:05;14.00;99.90
13328;DHT22;6733;51.044;3.746;2023-11-19T01:34:31;14.00;99.90
13328;DHT22;6733;51.044;3.746;2023-11-19T01:36:58;13.90;99.90
13328;DHT22;6733;51.044;3.746;2023-11-19T01:39:24;13.90;99.90
13328;DHT22;6733;51.044;3.746;2023-11-19T01:41:50;13.80;99.90
13328;DHT22;6733;51.044;3.746;2023-11-19T01:44:16;13.80;99.90
13328;DHT22;6733;51.044;3.746;2023-11-19T01:46:44;13.80;99.90
13328;DHT22;6733;51.044;3.746;2023-11-19T01:49:14;13.70;99.90
13328;DHT22;6733;51.044;3.746;2023-11-19T01:51:41;13.70;99.90
13328;DHT22;6733;51.044;3.746;2023-11-19T01:54:08;13.70;99.90
13328;DHT22;6733;51.044;3.746;2023-11-19T01:56:35;13.70;99.90
13328;DHT22;6733;51.044;3.746;2023-11-19T01:59:03;13.70;99.90
13328;DHT22;6733;51.044;3.746;2023-11-19T02:01:29;13.70;99.90
13328;DHT22;6733;51.044;3.746;2023-11-19T02:03:56;13.70;99.90
13328;DHT22;6733;51.044;3.746;2023-11-19T02:06:25;13.60;99.90
13328;DHT22;6733;51.044;3.746;2023-11-19T02:08:52;13.60;99.90
13328;DHT22;6733;51.044;3.746;2023-11-19T02:11:18;13.50;99.90
13328;DHT22;6733;51.044;3.746;2023-11-19T02:13:44;13.50;99.90
13328;DHT22;6733;51.044;3.746;2023-11-19T02:16:10;13.50;99.90
13328;DHT22;6733;51.044;3.746;2023-11-19T02:18:36;13.50;99.90
13328;DHT22;6733;51.044;3.746;2023-11-19T02:21:03;13.40;99.90
13328;DHT22;6733;51.044;3.746;2023-11-19T02:23:31;13.40;99.90
13328;DHT22;6733;51.044;3.746;2023-11-19T02:28:28;13.40;99.90
13328;DHT22;6733;51.044;3.746;2023-11-19T02:30:54;13.40;99.90
13328;DHT22;6733;51.044;3.746;2023-11-19T02:33:20;13.40;99.90
13328;DHT22;6733;51.044;3.746;2023-11-19T02:36:15;13.40;99.90
13328;DHT22;6733;51.044;3.746;2023-11-19T02:39:11;13.40;99.90
13328;DHT22;6733;51.044;3.746;2023-11-19T02:42:06;13.50;99.90
13328;DHT22;6733;51.044;3.746;2023-11-19T02:45:00;13.50;99.90
13328;DHT22;6733;51.044;3.746;2023-11-19T02:47:55;13.50;99.90
13328;DHT22;6733;51.044;3.746;2023-11-19T02:50:50;13.50;99.90
13328;DHT22;6733;51.044;3.746;2023-11-19T02:53:46;13.40;99.90
13328;DHT22;6733;51.044;3.746;2023-11-19T02:56:42;13.40;99.90
13328;DHT22;6733;51.044;3.746;2023-11-19T02:59:39;13.40;99.90
13328;DHT22;6733;51.044;3.746;2023-11-19T03:02:07;13.40;99.90
13328;DHT22;6733;51.044;3.746;2023-11-19T03:04:38;13.40;99.90
13328;DHT22;6733;51.044;3.746;2023-11-19T03:07:08;13.40;99.90
13328;DHT22;6733;51.044;3.746;2023-11-19T03:09:34;13.50;99.90
13328;DHT22;6733;51.044;3.746;2023-11-19T03:12:01;13.50;99.90
13328;DHT22;6733;51.044;3.746;2023-11-19T03:14:28;13.50;99.90
13328;DHT22;6733;51.044;3.746;2023-11-19T03:16:54;13.50;99.90
13328;DHT22;6733;51.044;3.746;2023-11-19T03:19:20;13.40;99.90
13328;DHT22;6733;51.044;3.746;2023-11-19T03:21:47;13.30;99.90
13328;DHT22;6733;51.044;3.746;2023-11-19T03:24:14;13.30;99.90
13328;DHT22;6733;51.044;3.746;2023-11-19T03:26:41;13.20;99.90
13328;DHT22;6733;51.044;3.746;2023-11-19T03:29:08;13.20;99.90
13328;DHT22;6733;51.044;3.746;2023-11-19T03:31:35;13.10;99.90
13328;DHT22;6733;51.044;3.746;2023-11-19T03:34:01;13.10;99.90
13328;DHT22;6733;51.044;3.746;2023-11-19T03:36:32;13.00;99.90
13328;DHT22;6733;51.044;3.746;2023-11-19T03:38:58;13.00;99.90
13328;DHT22;6733;51.044;3.746;2023-11-19T03:41:25;13.00;99.90
13328;DHT22;6733;51.044;3.746;2023-11-19T03:43:51;12.90;99.90
13328;DHT22;6733;51.044;3.746;2023-11-19T03:46:21;12.90;99.90
13328;DHT22;6733;51.044;3.746;2023-11-19T03:48:48;12.90;99.90
13328;DHT22;6733;51.044;3.746;2023-11-19T03:51:15;12.90;99.90
13328;DHT22;6733;51.044;3.746;2023-11-19T03:53:45;12.80;99.90
13328;DHT22;6733;51.044;3.746;2023-11-19T03:56:12;12.80;99.90
13328;DHT22;6733;51.044;3.746;2023-11-19T03:58:38;12.80;99.90
13328;DHT22;6733;51.044;3.746;2023-11-19T04:01:05;12.80;99.90
13328;DHT22;6733;51.044;3.746;2023-11-19T04:03:32;12.80;99.90
13328;DHT22;6733;51.044;3.746;2023-11-19T04:05:58;12.80;99.90
13328;DHT22;6733;51.044;3.746;2023-11-19T04:08:25;12.70;99.90
13328;DHT22;6733;51.044;3.746;2023-11-19T04:10:51;12.70;99.90
13328;DHT22;6733;51.044;3.746;2023-11-19T04:13:17;12.70;99.90
13328;DHT22;6733;51.044;3.746;2023-11-19T04:15:43;12.70;99.90
13328;DHT22;6733;51.044;3.746;2023-11-19T04:18:09;12.60;99.90
13328;DHT22;6733;51.044;3.746;2023-11-19T04:20:35;12.60;99.90
13328;DHT22;6733;51.044;3.746;2023-11-19T04:23:02;12.60;99.90
13328;DHT22;6733;51.044;3.746;2023-11-19T04:25:28;12.60;99.90
13328;DHT22;6733;51.044;3.746;2023-11-19T04:27:55;12.60;99.90
13328;DHT22;6733;51.044;3.746;2023-11-19T04:30:21;12.50;99.90
13328;DHT22;6733;51.044;3.746;2023-11-19T04:32:47;12.50;99.90
13328;DHT22;6733;51.044;3.746;2023-11-19T04:35:14;12.40;99.90
13328;DHT22;6733;51.044;3.746;2023-11-19T04:37:42;12.40;99.90
13328;DHT22;6733;51.044;3.746;2023-11-19T04:40:08;12.40;99.90
13328;DHT22;6733;51.044;3.746;2023-11-19T04:42:35;12.30;99.90
13328;DHT22;6733;51.044;3.746;2023-11-19T04:45:01;12.30;99.90
13328;DHT22;6733;51.044;3.746;2023-11-19T04:47:27;12.30;99.90
13328;DHT22;6733;51.044;3.746;2023-11-19T04:49:54;12.30;99.90
13328;DHT22;6733;51.044;3.746;2023-11-19T04:52:20;12.20;99.90
13328;DHT22;6733;51.044;3.746;2023-11-19T04:54:46;12.20;99.90
13328;DHT22;6733;51.044;3.746;2023-11-19T04:57:14;12.10;99.90
13328;DHT22;6733;51.044;3.746;2023-11-19T04:59:40;12.10;99.90
13328;DHT22;6733;51.044;3.746;2023-11-19T05:02:08;12.10;99.90
13328;DHT22;6733;51.044;3.746;2023-11-19T05:04:35;12.10;99.90
13328;DHT22;6733;51.044;3.746;2023-11-19T05:07:01;12.10;99.90
13328;DHT22;6733;51.044;3.746;2023-11-19T05:09:27;12.00;99.90
13328;DHT22;6733;51.044;3.746;2023-11-19T05:11:53;12.00;99.90
13328;DHT22;6733;51.044;3.746;2023-11-19T05:14:20;12.00;99.90
13328;DHT22;6733;51.044;3.746;2023-11-19T05:16:47;12.00;99.90
13328;DHT22;6733;51.044;3.746;2023-11-19T05:19:13;12.00;99.90
13328;DHT22;6733;51.044;3.746;2023-11-19T05:21:42;11.90;99.90
13328;DHT22;6733;51.044;3.746;2023-11-19T05:24:09;11.90;99.90
13328;DHT22;6733;51.044;3.746;2023-11-19T05:26:35;11.90;99.90
13328;DHT22;6733;51.044;3.746;2023-11-19T05:29:01;11.90;99.90
13328;DHT22;6733;51.044;3.746;2023-11-19T05:31:27;11.90;99.90
13328;DHT22;6733;51.044;3.746;2023-11-19T05:33:53;11.90;99.90
13328;DHT22;6733;51.044;3.746;2023-11-19T05:36:20;11.90;99.90
13328;DHT22;6733;51.044;3.746;2023-11-19T05:38:46;11.90;99.90
13328;DHT22;6733;51.044;3.746;2023-11-19T05:41:12;11.90;99.90
13328;DHT22;6733;51.044;3.746;2023-11-19T05:43:38;11.90;99.90
13328;DHT22;6733;51.044;3.746;2023-11-19T05:46:07;11.90;99.90
13328;DHT22;6733;51.044;3.746;2023-11-19T05:48:33;11.90;99.90
13328;DHT22;6733;51.044;3.746;2023-11-19T05:50:59;11.90;99.90
13328;DHT22;6733;51.044;3.746;2023-11-19T05:53:26;11.90;99.90
13328;DHT22;6733;51.044;3.746;2023-11-19T05:55:52;11.80;99.90
13328;DHT22;6733;51.044;3.746;2023-11-19T05:58:25;11.80;99.90
13328;DHT22;6733;51.044;3.746;2023-11-19T06:00:52;11.80;99.90
13328;DHT22;6733;51.044;3.746;2023-11-19T06:03:19;11.70;99.90
13328;DHT22;6733;51.044;3.746;2023-11-19T06:05:45;11.70;99.90
13328;DHT22;6733;51.044;3.746;2023-11-19T06:08:12;11.70;99.90
13328;DHT22;6733;51.044;3.746;2023-11-19T06:10:40;11.70;99.90
13328;DHT22;6733;51.044;3.746;2023-11-19T06:13:07;11.70;99.90
13328;DHT22;6733;51.044;3.746;2023-11-19T06:15:36;11.70;99.90
13328;DHT22;6733;51.044;3.746;2023-11-19T06:18:03;11.70;99.90
13328;DHT22;6733;51.044;3.746;2023-11-19T06:20:30;11.70;99.90
13328;DHT22;6733;51.044;3.746;2023-11-19T06:22:57;11.70;99.90
13328;DHT22;6733;51.044;3.746;2023-11-19T06:25:24;11.70;99.90
13328;DHT22;6733;51.044;3.746;2023-11-19T06:27:51;11.70;99.90
13328;DHT22;6733;51.044;3.746;2023-11-19T06:30:18;11.70;99.90
13328;DHT22;6733;51.044;3.746;2023-11-19T06:32:45;11.70;99.90
13328;DHT22;6733;51.044;3.746;2023-11-19T06:35:11;11.60;99.90
13328;DHT22;6733;51.044;3.746;2023-11-19T06:37:41;11.60;99.90
13328;DHT22;6733;51.044;3.746;2023-11-19T06:40:08;11.60;99.90
13328;DHT22;6733;51.044;3.746;2023-11-19T06:42:35;11.50;99.90
13328;DHT22;6733;51.044;3.746;2023-11-19T06:45:02;11.50;99.90
13328;DHT22;6733;51.044;3.746;2023-11-19T06:47:29;11.60;99.90
13328;DHT22;6733;51.044;3.746;2023-11-19T06:49:56;11.60;99.90
13328;DHT22;6733;51.044;3.746;2023-11-19T06:52:22;11.50;99.90
13328;DHT22;6733;51.044;3.746;2023-11-19T06:54:48;11.60;99.90
13328;DHT22;6733;51.044;3.746;2023-11-19T06:57:14;11.60;99.90
13328;DHT22;6733;51.044;3.746;2023-11-19T06:59:42;11.60;99.90
13328;DHT22;6733;51.044;3.746;2023-11-19T07:02:08;11.60;99.90
13328;DHT22;6733;51.044;3.746;2023-11-19T07:04:34;11.70;99.90
13328;DHT22;6733;51.044;3.746;2023-11-19T07:07:01;11.70;99.90
13328;DHT22;6733;51.044;3.746;2023-11-19T07:09:27;11.70;99.90
13328;DHT22;6733;51.044;3.746;2023-11-19T07:11:53;11.70;99.90
13328;DHT22;6733;51.044;3.746;2023-11-19T07:14:20;11.70;99.90
13328;DHT22;6733;51.044;3.746;2023-11-19T07:16:46;11.70;99.90
13328;DHT22;6733;51.044;3.746;2023-11-19T07:19:12;11.60;99.90
13328;DHT22;6733;51.044;3.746;2023-11-19T07:21:42;11.70;99.90
13328;DHT22;6733;51.044;3.746;2023-11-19T07:24:10;11.70;99.90
13328;DHT22;6733;51.044;3.746;2023-11-19T07:26:46;11.70;99.90
13328;DHT22;6733;51.044;3.746;2023-11-19T07:29:13;11.70;99.90
13328;DHT22;6733;51.044;3.746;2023-11-19T07:31:41;11.80;99.90
13328;DHT22;6733;51.044;3.746;2023-11-19T07:34:07;11.90;99.90
13328;DHT22;6733;51.044;3.746;2023-11-19T07:36:35;11.90;99.90
13328;DHT22;6733;51.044;3.746;2023-11-19T07:39:01;11.90;99.90
13328;DHT22;6733;51.044;3.746;2023-11-19T07:41:28;11.90;99.90
13328;DHT22;6733;51.044;3.746;2023-11-19T07:43:54;11.90;99.90
13328;DHT22;6733;51.044;3.746;2023-11-19T07:46:20;11.90;99.90
13328;DHT22;6733;51.044;3.746;2023-11-19T07:48:47;12.00;99.90
13328;DHT22;6733;51.044;3.746;2023-11-19T07:51:14;12.00;99.90
13328;DHT22;6733;51.044;3.746;2023-11-19T07:53:41;12.00;99.90
13328;DHT22;6733;51.044;3.746;2023-11-19T07:56:08;12.00;99.90
13328;DHT22;6733;51.044;3.746;2023-11-19T07:58:34;12.10;99.90
13328;DHT22;6733;51.044;3.746;2023-11-19T08:01:00;12.10;99.90
13328;DHT22;6733;51.044;3.746;2023-11-19T08:03:28;12.00;99.90
13328;DHT22;6733;51.044;3.746;2023-11-19T08:05:56;12.10;99.90
13328;DHT22;6733;51.044;3.746;2023-11-19T08:08:23;12.10;99.90
13328;DHT22;6733;51.044;3.746;2023-11-19T08:10:49;12.20;99.90
13328;DHT22;6733;51.044;3.746;2023-11-19T08:13:20;12.20;99.90
13328;DHT22;6733;51.044;3.746;2023-11-19T08:15:46;12.20;99.90
13328;DHT22;6733;51.044;3.746;2023-11-19T08:18:13;12.20;99.90
13328;DHT22;6733;51.044;3.746;2023-11-19T08:20:39;12.20;99.90
13328;DHT22;6733;51.044;3.746;2023-11-19T08:23:05;12.20;99.90
13328;DHT22;6733;51.044;3.746;2023-11-19T08:25:31;12.20;99.90
13328;DHT22;6733;51.044;3.746;2023-11-19T08:27:59;12.30;99.90
13328;DHT22;6733;51.044;3.746;2023-11-19T08:30:26;12.30;99.90
13328;DHT22;6733;51.044;3.746;2023-11-19T08:32:53;12.40;99.90
13328;DHT22;6733;51.044;3.746;2023-11-19T08:35:19;12.50;99.90
13328;DHT22;6733;51.044;3.746;2023-11-19T08:37:45;12.60;99.90
13328;DHT22;6733;51.044;3.746;2023-11-19T08:40:12;12.70;99.90
13328;DHT22;6733;51.044;3.746;2023-11-19T08:42:40;12.80;99.90
13328;DHT22;6733;51.044;3.746;2023-11-19T08:45:07;12.90;99.90
13328;DHT22;6733;51.044;3.746;2023-11-19T08:47:39;13.00;99.90
13328;DHT22;6733;51.044;3.746;2023-11-19T08:50:06;12.90;99.90
13328;DHT22;6733;51.044;3.746;2023-11-19T08:52:32;12.90;99.90
13328;DHT22;6733;51.044;3.746;2023-11-19T08:54:58;13.00;99.90
13328;DHT22;6733;51.044;3.746;2023-11-19T08:57:25;13.00;99.90
13328;DHT22;6733;51.044;3.746;2023-11-19T09:00:14;13.10;99.90
13328;DHT22;6733;51.044;3.746;2023-11-19T09:02:41;13.20;99.90
13328;DHT22;6733;51.044;3.746;2023-11-19T09:05:07;13.40;99.90
13328;DHT22;6733;51.044;3.746;2023-11-19T09:07:33;13.40;99.90
13328;DHT22;6733;51.044;3.746;2023-11-19T09:09:59;13.40;99.90
13328;DHT22;6733;51.044;3.746;2023-11-19T09:12:26;13.60;99.90
13328;DHT22;6733;51.044;3.746;2023-11-19T09:14:52;13.60;99.90
13328;DHT22;6733;51.044;3.746;2023-11-19T09:17:18;13.70;99.90
13328;DHT22;6733;51.044;3.746;2023-11-19T09:19:44;13.70;99.90
13328;DHT22;6733;51.044;3.746;2023-11-19T09:22:11;13.70;99.90
13328;DHT22;6733;51.044;3.746;2023-11-19T09:24:37;13.70;99.90
13328;DHT22;6733;51.044;3.746;2023-11-19T09:27:04;13.60;99.90
13328;DHT22;6733;51.044;3.746;2023-11-19T09:29:33;13.50;99.90
13328;DHT22;6733;51.044;3.746;2023-11-19T09:31:59;13.40;99.90
13328;DHT22;6733;51.044;3.746;2023-11-19T09:34:26;13.30;99.90
13328;DHT22;6733;51.044;3.746;2023-11-19T09:36:52;13.30;99.90
13328;DHT22;6733;51.044;3.746;2023-11-19T09:39:18;13.30;99.90
13328;DHT22;6733;51.044;3.746;2023-11-19T09:41:46;13.30;99.90
13328;DHT22;6733;51.044;3.746;2023-11-19T09:44:13;13.40;99.90
13328;DHT22;6733;51.044;3.746;2023-11-19T09:46:41;13.50;99.90
13328;DHT22;6733;51.044;3.746;2023-11-19T09:49:08;13.70;99.90
13328;DHT22;6733;51.044;3.746;2023-11-19T09:51:36;14.00;99.90
13328;DHT22;6733;51.044;3.746;2023-11-19T09:54:02;14.30;99.90
13328;DHT22;6733;51.044;3.746;2023-11-19T09:56:32;14.40;99.90
13328;DHT22;6733;51.044;3.746;2023-11-19T09:58:59;14.30;99.90
13328;DHT22;6733;51.044;3.746;2023-11-19T10:01:25;14.20;99.90
13328;DHT22;6733;51.044;3.746;2023-11-19T10:03:55;14.20;99.90
13328;DHT22;6733;51.044;3.746;2023-11-19T10:06:21;14.20;99.90
13328;DHT22;6733;51.044;3.746;2023-11-19T10:08:48;14.10;99.90
13328;DHT22;6733;51.044;3.746;2023-11-19T10:11:14;14.00;99.90
13328;DHT22;6733;51.044;3.746;2023-11-19T10:13:41;14.00;99.90
13328;DHT22;6733;51.044;3.746;2023-11-19T10:16:15;14.10;99.90
13328;DHT22;6733;51.044;3.746;2023-11-19T10:18:48;14.00;99.90
13328;DHT22;6733;51.044;3.746;2023-11-19T10:21:18;14.00;99.90
13328;DHT22;6733;51.044;3.746;2023-11-19T10:23:52;13.80;99.90
13328;DHT22;6733;51.044;3.746;2023-11-19T10:26:22;13.80;99.90
13328;DHT22;6733;51.044;3.746;2023-11-19T10:28:49;13.90;99.90
13328;DHT22;6733;51.044;3.746;2023-11-19T10:31:16;13.90;99.90
13328;DHT22;6733;51.044;3.746;2023-11-19T10:33:43;14.00;99.90
13328;DHT22;6733;51.044;3.746;2023-11-19T10:36:11;14.10;99.90
13328;DHT22;6733;51.044;3.746;2023-11-19T10:38:38;14.10;99.90
13328;DHT22;6733;51.044;3.746;2023-11-19T10:41:05;14.20;99.90
13328;DHT22;6733;51.044;3.746;2023-11-19T10:43:43;14.40;99.90
13328;DHT22;6733;51.044;3.746;2023-11-19T10:46:14;14.50;99.90
13328;DHT22;6733;51.044;3.746;2023-11-19T10:48:40;14.40;99.90
13328;DHT22;6733;51.044;3.746;2023-11-19T10:51:07;14.40;99.90
13328;DHT22;6733;51.044;3.746;2023-11-19T10:53:38;14.50;99.90
13328;DHT22;6733;51.044;3.746;2023-11-19T10:56:06;14.50;99.90
13328;DHT22;6733;51.044;3.746;2023-11-19T10:58:36;14.50;99.90
13328;DHT22;6733;51.044;3.746;2023-11-19T11:01:18;14.60;99.90
13328;DHT22;6733;51.044;3.746;2023-11-19T11:03:47;14.70;99.90
13328;DHT22;6733;51.044;3.746;2023-11-19T11:06:13;14.80;99.90
13328;DHT22;6733;51.044;3.746;2023-11-19T11:08:40;14.90;99.90
13328;DHT22;6733;51.044;3.746;2023-11-19T11:11:08;15.00;99.90
13328;DHT22;6733;51.044;3.746;2023-11-19T11:13:37;15.00;99.90
13328;DHT22;6733;51.044;3.746;2023-11-19T11:16:06;15.20;99.90
13328;DHT22;6733;51.044;3.746;2023-11-19T11:18:33;15.40;99.90
13328;DHT22;6733;51.044;3.746;2023-11-19T11:21:07;15.60;99.90
13328;DHT22;6733;51.044;3.746;2023-11-19T11:29:41;15.40;99.90
13328;DHT22;6733;51.044;3.746;2023-11-19T11:35:24;15.20;99.90
13328;DHT22;6733;51.044;3.746;2023-11-19T11:38:02;15.00;99.90
13328;DHT22;6733;51.044;3.746;2023-11-19T11:40:29;14.90;99.90
13328;DHT22;6733;51.044;3.746;2023-11-19T11:42:55;14.90;99.90
13328;DHT22;6733;51.044;3.746;2023-11-19T11:45:39;14.80;99.90
13328;DHT22;6733;51.044;3.746;2023-11-19T11:48:12;14.50;99.90
13328;DHT22;6733;51.044;3.746;2023-11-19T11:50:52;14.50;99.90
13328;DHT22;6733;51.044;3.746;2023-11-19T11:53:20;14.60;99.90
13328;DHT22;6733;51.044;3.746;2023-11-19T11:58:31;14.30;99.90
13328;DHT22;6733;51.044;3.746;2023-11-19T12:01:00;14.30;99.90
13328;DHT22;6733;51.044;3.746;2023-11-19T12:03:28;14.30;99.90
13328;DHT22;6733;51.044;3.746;2023-11-19T12:05:55;14.00;99.90
13328;DHT22;6733;51.044;3.746;2023-11-19T12:08:26;14.00;99.90
13328;DHT22;6733;51.044;3.746;2023-11-19T12:10:54;14.00;99.90
13328;DHT22;6733;51.044;3.746;2023-11-19T12:13:24;14.20;99.90
13328;DHT22;6733;51.044;3.746;2023-11-19T12:18:32;14.30;99.90
13328;DHT22;6733;51.044;3.746;2023-11-19T12:20:59;14.60;99.90
13328;DHT22;6733;51.044;3.746;2023-11-19T12:23:29;14.50;99.90
13328;DHT22;6733;51.044;3.746;2023-11-19T12:25:56;14.70;99.90
13328;DHT22;6733;51.044;3.746;2023-11-19T12:28:23;14.90;99.90
13328;DHT22;6733;51.044;3.746;2023-11-19T12:30:53;14.80;99.90
13328;DHT22;6733;51.044;3.746;2023-11-19T12:33:22;14.50;99.90
13328;DHT22;6733;51.044;3.746;2023-11-19T12:35:48;14.50;99.90
13328;DHT22;6733;51.044;3.746;2023-11-19T12:38:25;14.40;99.90
13328;DHT22;6733;51.044;3.746;2023-11-19T12:41:07;14.20;99.90
13328;DHT22;6733;51.044;3.746;2023-11-19T12:43:34;14.20;99.90
13328;DHT22;6733;51.044;3.746;2023-11-19T12:46:02;14.20;99.90
13328;DHT22;6733;51.044;3.746;2023-11-19T12:48:28;14.30;99.90
13328;DHT22;6733;51.044;3.746;2023-11-19T12:50:58;14.10;99.90
13328;DHT22;6733;51.044;3.746;2023-11-19T12:53:26;14.10;99.90
13328;DHT22;6733;51.044;3.746;2023-11-19T12:55:53;14.20;99.90
13328;DHT22;6733;51.044;3.746;2023-11-19T12:58:35;14.10;99.90
13328;DHT22;6733;51.044;3.746;2023-11-19T13:01:06;14.10;99.90
13328;DHT22;6733;51.044;3.746;2023-11-19T13:03:34;14.10;99.90
13328;DHT22;6733;51.044;3.746;2023-11-19T13:06:11;14.10;99.90
13328;DHT22;6733;51.044;3.746;2023-11-19T13:08:39;14.10;99.90
13328;DHT22;6733;51.044;3.746;2023-11-19T13:11:06;14.10;99.90
13328;DHT22;6733;51.044;3.746;2023-11-19T13:14:03;14.20;99.90
13328;DHT22;6733;51.044;3.746;2023-11-19T13:16:36;14.10;99.90
13328;DHT22;6733;51.044;3.746;2023-11-19T13:19:02;14.30;99.90
13328;DHT22;6733;51.044;3.746;2023-11-19T13:21:29;14.30;99.90
13328;DHT22;6733;51.044;3.746;2023-11-19T13:23:56;14.30;99.90
13328;DHT22;6733;51.044;3.746;2023-11-19T13:26:22;14.20;99.90
13328;DHT22;6733;51.044;3.746;2023-11-19T13:28:48;14.30;99.90
13328;DHT22;6733;51.044;3.746;2023-11-19T13:31:15;14.40;99.90
13328;DHT22;6733;51.044;3.746;2023-11-19T13:33:41;14.30;99.90
13328;DHT22;6733;51.044;3.746;2023-11-19T13:36:08;14.20;99.90
13328;DHT22;6733;51.044;3.746;2023-11-19T13:38:35;14.20;99.90
13328;DHT22;6733;51.044;3.746;2023-11-19T13:41:02;14.20;99.90
13328;DHT22;6733;51.044;3.746;2023-11-19T13:43:34;14.20;99.90
13328;DHT22;6733;51.044;3.746;2023-11-19T13:46:00;14.10;99.90
13328;DHT22;6733;51.044;3.746;2023-11-19T13:48:27;14.10;99.90
13328;DHT22;6733;51.044;3.746;2023-11-19T13:50:55;14.10;99.90
13328;DHT22;6733;51.044;3.746;2023-11-19T13:53:22;14.10;99.90
13328;DHT22;6733;51.044;3.746;2023-11-19T13:55:49;14.00;99.90
13328;DHT22;6733;51.044;3.746;2023-11-19T13:58:16;13.80;99.90
13328;DHT22;6733;51.044;3.746;2023-11-19T14:00:42;13.70;99.90
13328;DHT22;6733;51.044;3.746;2023-11-19T14:03:09;13.60;99.90
13328;DHT22;6733;51.044;3.746;2023-11-19T14:05:39;13.40;99.90
13328;DHT22;6733;51.044;3.746;2023-11-19T14:08:07;13.40;99.90
13328;DHT22;6733;51.044;3.746;2023-11-19T14:10:42;13.40;99.90
13328;DHT22;6733;51.044;3.746;2023-11-19T14:13:08;13.30;99.90
13328;DHT22;6733;51.044;3.746;2023-11-19T14:15:35;13.20;99.90
13328;DHT22;6733;51.044;3.746;2023-11-19T14:18:02;13.20;99.90
13328;DHT22;6733;51.044;3.746;2023-11-19T14:20:31;13.30;99.90
13328;DHT22;6733;51.044;3.746;2023-11-19T14:22:57;13.20;99.90
13328;DHT22;6733;51.044;3.746;2023-11-19T14:25:23;13.20;99.90
13328;DHT22;6733;51.044;3.746;2023-11-19T14:27:50;13.10;99.90
13328;DHT22;6733;51.044;3.746;2023-11-19T14:30:16;13.10;99.90
13328;DHT22;6733;51.044;3.746;2023-11-19T14:32:43;13.20;99.90
13328;DHT22;6733;51.044;3.746;2023-11-19T14:35:13;13.20;99.90
13328;DHT22;6733;51.044;3.746;2023-11-19T14:37:39;13.20;99.90
13328;DHT22;6733;51.044;3.746;2023-11-19T14:40:08;13.20;99.90
13328;DHT22;6733;51.044;3.746;2023-11-19T14:42:35;13.20;99.90
13328;DHT22;6733;51.044;3.746;2023-11-19T14:45:03;13.20;99.90
13328;DHT22;6733;51.044;3.746;2023-11-19T14:47:30;13.20;99.90
13328;DHT22;6733;51.044;3.746;2023-11-19T14:49:56;13.20;99.90
13328;DHT22;6733;51.044;3.746;2023-11-19T14:52:22;13.20;99.90
13328;DHT22;6733;51.044;3.746;2023-11-19T14:54:48;13.30;99.90
13328;DHT22;6733;51.044;3.746;2023-11-19T14:57:20;13.30;99.90
13328;DHT22;6733;51.044;3.746;2023-11-19T14:59:46;13.30;99.90
13328;DHT22;6733;51.044;3.746;2023-11-19T15:02:12;13.30;99.90
13328;DHT22;6733;51.044;3.746;2023-11-19T15:04:38;13.30;99.90
13328;DHT22;6733;51.044;3.746;2023-11-19T15:07:06;13.30;99.90
13328;DHT22;6733;51.044;3.746;2023-11-19T15:09:32;13.30;99.90
13328;DHT22;6733;51.044;3.746;2023-11-19T15:11:59;13.30;99.90
13328;DHT22;6733;51.044;3.746;2023-11-19T15:14:25;13.30;99.90
13328;DHT22;6733;51.044;3.746;2023-11-19T15:16:51;13.30;99.90
13328;DHT22;6733;51.044;3.746;2023-11-19T15:19:18;13.20;99.90
13328;DHT22;6733;51.044;3.746;2023-11-19T15:21:46;13.20;99.90
13328;DHT22;6733;51.044;3.746;2023-11-19T15:24:12;13.20;99.90
13328;DHT22;6733;51.044;3.746;2023-11-19T15:26:38;13.20;99.90
13328;DHT22;6733;51.044;3.746;2023-11-19T15:29:04;13.10;99.90
13328;DHT22;6733;51.044;3.746;2023-11-19T15:31:31;13.00;99.90
13328;DHT22;6733;51.044;3.746;2023-11-19T15:33:58;12.90;99.90
13328;DHT22;6733;51.044;3.746;2023-11-19T15:36:24;12.80;99.90
13328;DHT22;6733;51.044;3.746;2023-11-19T15:38:50;12.80;99.90
13328;DHT22;6733;51.044;3.746;2023-11-19T15:41:16;12.80;99.90
13328;DHT22;6733;51.044;3.746;2023-11-19T15:43:42;12.80;99.90
13328;DHT22;6733;51.044;3.746;2023-11-19T15:46:10;12.80;99.90
13328;DHT22;6733;51.044;3.746;2023-11-19T15:48:37;12.80;99.90
13328;DHT22;6733;51.044;3.746;2023-11-19T15:51:03;12.90;99.90
13328;DHT22;6733;51.044;3.746;2023-11-19T15:53:30;12.90;99.90
13328;DHT22;6733;51.044;3.746;2023-11-19T15:55:59;12.90;99.90
13328;DHT22;6733;51.044;3.746;2023-11-19T15:58:25;12.90;99.90
13328;DHT22;6733;51.044;3.746;2023-11-19T16:00:51;12.90;99.90
13328;DHT22;6733;51.044;3.746;2023-11-19T16:03:17;12.90;99.90
13328;DHT22;6733;51.044;3.746;2023-11-19T16:05:44;12.90;99.90
13328;DHT22;6733;51.044;3.746;2023-11-19T16:08:10;12.90;99.90